Time;durP1;ratioP1;P1;durP2;ratioP2;P2;SDS_P1;SDS_P2;PMS_P1;PMS_P2;Temp;Humidity;BMP_temperature;BMP_pressure;BME280_temperature;BME280_humidity;BME280_pressure;Samples;Min_cycle;Max_cycle;Signal;HPM_P1;HPM_P2
2022/08/15 00:00:44;;;;;;;1.35;0.80;;;;;;;19.71;53.97;99090.22;5017403;28;20776;-75
2022/08/15 00:03:31;;;;;;;0.90;0.75;;;;;;;19.78;54.27;99105.41;5039766;28;20713;-74
2022/08/15 00:06:02;;;;;;;0.60;0.60;;;;;;;19.80;54.32;99100.31;5011733;28;20039;-74
2022/08/15 00:08:30;;;;;;;1.10;0.90;;;;;;;19.84;54.40;99109.53;5035688;28;21149;-74
2022/08/15 00:10:59;;;;;;;2.10;1.50;;;;;;;19.86;54.47;99107.22;5014941;28;20029;-74
2022/08/15 00:13:28;;;;;;;2.20;1.30;;;;;;;19.88;54.23;99110.44;5024682;28;20050;-74
2022/08/15 00:15:54;;;;;;;1.27;1.10;;;;;;;19.90;54.89;99112.84;5013088;28;20169;-74
2022/08/15 00:18:27;;;;;;;1.48;1.30;;;;;;;19.93;54.64;99104.63;5018654;28;20025;-75
2022/08/15 00:20:52;;;;;;;1.10;1.00;;;;;;;20.00;54.63;99107.53;5020730;28;20037;-74
2022/08/15 00:23:22;;;;;;;1.05;0.95;;;;;;;20.04;54.76;99110.41;5013200;28;20597;-73
2022/08/15 00:25:49;;;;;;;1.65;1.10;;;;;;;20.01;55.08;99100.03;4996776;28;20029;-75
2022/08/15 00:28:17;;;;;;;2.05;1.80;;;;;;;19.99;55.47;99100.41;5024463;28;20206;-74
2022/08/15 00:30:44;;;;;;;1.92;1.58;;;;;;;19.94;55.60;99106.22;5022881;28;20030;-73
2022/08/15 00:33:11;;;;;;;2.55;1.80;;;;;;;19.85;56.36;99100.06;5022031;28;20029;-74
2022/08/15 00:35:40;;;;;;;3.08;1.83;;;;;;;19.75;56.45;99097.81;5014583;28;20409;-75
2022/08/15 00:38:28;;;;;;;1.52;1.40;;;;;;;19.62;55.68;99097.91;5001707;28;20025;-73
2022/08/15 00:43:53;;;;;;;1.83;1.52;;;;;;;19.42;56.82;99093.44;5018839;28;20049;-73
2022/08/15 00:46:19;;;;;;;2.25;2.00;;;;;;;19.42;57.30;99094.28;5027074;28;20060;-73
2022/08/15 00:48:46;;;;;;;2.17;1.85;;;;;;;19.30;57.34;99092.41;4998523;28;20022;-74
2022/08/15 00:51:32;;;;;;;1.83;1.38;;;;;;;19.26;56.98;99090.66;5027017;28;20453;-74
2022/08/15 00:54:05;;;;;;;1.00;0.98;;;;;;;19.21;57.79;99093.72;5026510;28;20519;-75
2022/08/15 00:56:35;;;;;;;1.05;0.90;;;;;;;19.18;57.41;99084.16;5018041;28;20045;-75
2022/08/15 00:59:04;;;;;;;1.23;0.95;;;;;;;19.13;57.84;99082.44;5028469;28;20112;-74
2022/08/15 01:01:32;;;;;;;0.90;0.77;;;;;;;19.13;58.08;99089.97;5022036;28;20056;-74
2022/08/15 01:03:58;;;;;;;1.02;1.00;;;;;;;19.08;58.37;99087.44;5027262;28;20032;-75
2022/08/15 01:06:25;;;;;;;1.40;1.27;;;;;;;19.06;59.01;99089.78;4999651;28;20098;-74
2022/08/15 01:08:51;;;;;;;3.90;2.47;;;;;;;18.94;59.81;99083.16;5002252;28;20070;-74
2022/08/15 01:11:27;;;;;;;2.35;1.70;;;;;;;18.91;59.59;99083.88;4990608;28;20128;-75
2022/08/15 01:13:55;;;;;;;2.90;1.60;;;;;;;18.85;60.22;99076.91;5007801;28;20048;-75
2022/08/15 01:16:24;;;;;;;1.90;1.50;;;;;;;18.78;59.96;99072.00;5016145;28;20053;-75
2022/08/15 01:18:51;;;;;;;1.65;1.38;;;;;;;18.73;60.37;99065.91;5000215;28;20491;-74
2022/08/15 01:22:06;;;;;;;1.42;1.33;;;;;;;18.70;60.44;99063.88;5004109;28;20079;-74
2022/08/15 01:24:37;;;;;;;;;;;;;;;18.64;60.55;99074.38;4924035;28;20542;-76
2022/08/15 01:27:03;;;;;;;2.63;1.73;;;;;;;18.59;60.55;99069.13;5002029;28;19947;-74
2022/08/15 01:29:29;;;;;;;2.10;1.77;;;;;;;18.56;60.66;99070.63;5014633;28;20057;-75
2022/08/15 01:31:55;;;;;;;1.45;1.35;;;;;;;18.49;61.59;99075.94;5002498;28;20037;-74
2022/08/15 01:34:20;;;;;;;2.08;1.85;;;;;;;18.48;61.93;99082.63;5015958;28;20029;-74
2022/08/15 01:36:48;;;;;;;2.80;2.10;;;;;;;18.45;61.90;99086.13;5008455;28;20041;-74
2022/08/15 01:39:39;;;;;;;2.67;2.47;;;;;;;18.45;62.60;99086.13;4998719;28;20021;-73
2022/08/15 01:42:34;;;;;;;3.38;3.03;;;;;;;18.41;62.95;99082.44;4997469;28;20369;-74
2022/08/15 01:45:11;;;;;;;5.72;3.55;;;;;;;18.40;62.74;99083.56;4998441;28;20049;-73
2022/08/15 01:47:46;;;;;;;4.93;3.63;;;;;;;18.40;64.46;99091.88;5014896;28;20029;-75
2022/08/15 01:50:14;;;;;;;4.03;3.20;;;;;;;18.39;63.79;99082.00;5016637;28;20014;-74
2022/08/15 01:52:57;;;;;;;3.53;3.22;;;;;;;18.30;64.00;99080.16;5018855;28;20492;-74
2022/08/15 01:55:30;;;;;;;5.97;4.47;;;;;;;18.34;65.42;99085.81;5012526;28;20065;-73
2022/08/15 01:57:56;;;;;;;4.70;3.50;;;;;;;18.34;64.83;99096.06;5013039;28;20369;-75
2022/08/15 02:00:22;;;;;;;3.25;2.80;;;;;;;18.29;64.76;99084.06;5019486;28;20053;-73
2022/08/15 02:02:47;;;;;;;7.95;3.92;;;;;;;18.23;66.09;99085.47;4999859;28;20048;-74
2022/08/15 02:05:14;;;;;;;5.30;3.90;;;;;;;18.12;66.99;99087.94;4986520;28;20104;-75
2022/08/15 02:07:39;;;;;;;6.40;4.43;;;;;;;18.07;67.65;99081.84;5005889;28;20049;-74
2022/08/15 02:10:06;;;;;;;4.45;3.75;;;;;;;17.95;67.53;99075.19;5004020;28;20029;-73
2022/08/15 02:12:37;;;;;;;5.65;4.57;;;;;;;17.90;67.95;99089.25;5017239;28;20128;-72
2022/08/15 02:15:12;;;;;;;7.25;4.95;;;;;;;17.83;69.08;99089.00;5017922;28;20092;-72
2022/08/15 02:17:39;;;;;;;8.23;5.35;;;;;;;17.69;69.72;99078.28;5016115;28;20036;-73
2022/08/15 02:20:05;;;;;;;5.18;4.18;;;;;;;17.70;69.60;99087.41;4987630;28;20022;-75
2022/08/15 02:22:31;;;;;;;7.90;6.72;;;;;;;17.66;71.46;99089.25;5005377;28;20060;-74
2022/08/15 02:24:59;;;;;;;7.13;5.88;;;;;;;17.59;71.73;99090.59;5023330;28;20079;-74
2022/08/15 02:27:27;;;;;;;5.57;4.72;;;;;;;17.55;71.72;99089.72;4999024;28;20030;-74
2022/08/15 02:29:53;;;;;;;8.90;6.90;;;;;;;17.45;72.15;99079.13;5023901;28;20022;-75
2022/08/15 02:32:19;;;;;;;5.82;5.22;;;;;;;17.47;72.27;99078.75;5016900;28;20044;-74
2022/08/15 02:34:46;;;;;;;10.88;9.38;;;;;;;17.47;74.16;99071.28;5000756;28;20049;-73
2022/08/15 02:37:18;;;;;;;10.35;9.20;;;;;;;17.50;74.36;99064.25;5021330;28;20550;-74
2022/08/15 02:39:48;;;;;;;13.88;9.95;;;;;;;17.49;74.64;99055.13;4996359;28;20038;-73
2022/08/15 02:42:15;;;;;;;14.80;12.30;;;;;;;17.54;75.66;99059.66;5015887;28;20354;-73
2022/08/15 02:44:43;;;;;;;13.52;9.43;;;;;;;17.53;75.26;99064.34;5020401;28;20092;-73
2022/08/15 02:47:09;;;;;;;17.42;11.60;;;;;;;17.57;75.38;99053.44;4984468;28;20037;-74
2022/08/15 02:49:36;;;;;;;15.05;11.23;;;;;;;17.56;75.19;99052.59;5004401;28;20153;-74
2022/08/15 02:52:03;;;;;;;12.13;10.73;;;;;;;17.60;74.73;99059.06;5000113;28;20029;-73
2022/08/15 02:54:29;;;;;;;12.40;9.88;;;;;;;17.58;74.96;99055.84;5012377;28;20488;-75
2022/08/15 02:56:55;;;;;;;16.92;12.30;;;;;;;17.60;76.21;99059.06;5016379;28;20093;-74
2022/08/15 02:59:22;;;;;;;11.88;8.85;;;;;;;17.46;75.70;99036.50;4998814;28;20113;-76
2022/08/15 03:01:47;;;;;;;10.57;9.50;;;;;;;17.61;75.88;99057.91;4979876;28;20049;-73
2022/08/15 03:04:19;;;;;;;10.57;8.18;;;;;;;17.59;75.65;99051.91;5025208;28;20089;-74
2022/08/15 03:06:45;;;;;;;20.67;14.35;;;;;;;17.61;76.41;99049.63;5004146;28;20022;-73
2022/08/15 03:09:12;;;;;;;20.38;12.25;;;;;;;17.59;76.46;99040.84;5018094;28;20025;-73
2022/08/15 03:11:41;;;;;;;14.15;10.18;;;;;;;17.60;76.58;99053.53;4997865;28;20065;-74
2022/08/15 03:14:09;;;;;;;14.60;10.82;;;;;;;17.53;76.60;99061.59;5015095;28;20068;-75
2022/08/15 03:16:40;;;;;;;15.85;12.13;;;;;;;17.45;77.18;99057.81;5023178;28;20141;-74
2022/08/15 03:19:08;;;;;;;17.42;12.73;;;;;;;17.31;77.89;99056.53;4994065;28;20025;-74
2022/08/15 03:21:35;;;;;;;14.38;11.88;;;;;;;17.19;77.99;99054.56;5015665;28;20026;-75
2022/08/15 03:24:01;;;;;;;21.33;13.77;;;;;;;17.11;79.31;99053.50;5016047;28;20034;-73
2022/08/15 03:26:27;;;;;;;20.45;13.73;;;;;;;16.97;80.07;99041.97;5016222;28;20033;-75
2022/08/15 03:28:53;;;;;;;25.15;16.38;;;;;;;16.85;80.72;99045.50;5002203;28;20021;-75
2022/08/15 03:31:19;;;;;;;23.45;15.93;;;;;;;16.73;81.78;99043.50;5004745;28;20021;-73
2022/08/15 03:33:46;;;;;;;28.50;17.95;;;;;;;16.71;82.35;99045.81;4982509;28;20369;-74
2022/08/15 03:36:13;;;;;;;26.08;15.75;;;;;;;16.64;82.77;99034.53;5023498;28;20018;-74
2022/08/15 03:38:38;;;;;;;34.97;21.02;;;;;;;16.71;83.95;99045.81;4982705;28;20130;-73
2022/08/15 03:41:09;;;;;;;35.15;20.50;;;;;;;16.72;84.49;99041.91;5015764;28;20041;-74
2022/08/15 03:43:37;;;;;;;41.15;22.25;;;;;;;16.74;85.21;99040.41;5013008;28;20057;-74
2022/08/15 03:46:07;;;;;;;40.05;22.85;;;;;;;16.76;86.85;99031.78;4969502;28;20683;-75
2022/08/15 03:48:37;;;;;;;34.17;19.45;;;;;;;16.82;86.35;99029.63;5017743;28;20025;-74
2022/08/15 03:51:04;;;;;;;33.63;19.30;;;;;;;16.87;86.42;99033.00;4999542;28;20040;-73
2022/08/15 03:53:53;;;;;;;32.92;18.15;;;;;;;16.82;86.54;99030.44;5018486;28;20030;-73
2022/08/15 03:56:23;;;;;;;25.25;14.05;;;;;;;16.77;86.58;99032.63;4995685;28;20030;-75
2022/08/15 03:58:49;;;;;;;26.98;16.42;;;;;;;16.73;87.21;99029.72;5020790;28;20060;-74
2022/08/15 04:01:19;;;;;;;24.95;14.48;;;;;;;16.69;87.54;99020.50;5020322;28;20388;-75
2022/08/15 04:03:45;;;;;;;26.00;15.05;;;;;;;16.65;87.70;99008.56;5017046;28;20080;-73
2022/08/15 04:06:15;;;;;;;22.75;14.38;;;;;;;16.60;88.21;99017.03;5015108;28;20029;-74
2022/08/15 04:08:42;;;;;;;25.50;14.13;;;;;;;16.49;88.66;99011.94;5017930;28;20025;-73
2022/08/15 04:11:08;;;;;;;24.90;15.13;;;;;;;16.46;88.77;99012.63;4995896;28;20735;-74
2022/08/15 04:13:35;;;;;;;24.63;14.35;;;;;;;16.43;88.71;99018.81;5000902;28;20532;-75
2022/08/15 04:16:02;;;;;;;28.00;14.52;;;;;;;16.35;88.71;99014.19;4981403;28;20034;-72
2022/08/15 04:18:29;;;;;;;26.23;13.90;;;;;;;16.29;88.66;99007.28;4997062;28;20392;-73
2022/08/15 04:20:57;;;;;;;18.98;11.13;;;;;;;16.17;88.66;99000.56;5012843;28;20026;-74
2022/08/15 04:23:23;;;;;;;20.90;12.52;;;;;;;16.15;88.72;99002.03;5012740;28;20030;-73
2022/08/15 04:25:49;;;;;;;22.13;11.68;;;;;;;16.09;88.63;98995.94;4997597;28;20123;-74
2022/08/15 04:28:17;;;;;;;18.65;11.02;;;;;;;16.03;88.32;98994.50;4999681;28;20018;-75
2022/08/15 04:30:45;;;;;;;13.95;9.05;;;;;;;16.08;88.18;99002.59;4996716;28;20022;-76
2022/08/15 04:33:16;;;;;;;32.75;16.92;;;;;;;16.13;88.27;99001.56;5001217;28;20022;-74
2022/08/15 04:35:46;;;;;;;32.90;16.73;;;;;;;16.19;88.36;99008.50;5020524;28;20037;-75
2022/08/15 04:38:13;;;;;;;30.67;17.33;;;;;;;16.22;88.25;99003.13;5013679;28;20018;-74
2022/08/15 04:40:39;;;;;;;33.97;18.65;;;;;;;16.27;88.52;98995.78;4963325;28;20125;-75
2022/08/15 04:43:05;;;;;;;31.88;16.35;;;;;;;16.31;88.34;99007.72;5018024;28;20029;-74
2022/08/15 04:45:33;;;;;;;23.27;14.15;;;;;;;16.38;87.77;99016.25;5018943;28;20060;-73
2022/08/15 04:48:02;;;;;;;34.20;17.92;;;;;;;16.35;87.70;99000.41;5019096;28;20025;-75
2022/08/15 04:50:30;;;;;;;29.73;17.55;;;;;;;16.28;88.01;98994.63;5014410;28;20129;-73
2022/08/15 04:52:57;;;;;;;36.35;18.80;;;;;;;16.18;88.96;98999.44;5001502;28;20029;-75
2022/08/15 04:55:24;;;;;;;34.03;18.05;;;;;;;16.18;88.99;99004.94;4999916;28;20491;-73
2022/08/15 04:57:51;;;;;;;31.92;17.13;;;;;;;16.16;89.62;98993.41;4997628;28;20026;-74
2022/08/15 05:00:19;;;;;;;32.55;17.90;;;;;;;16.10;90.22;98993.97;5017273;28;20099;-75
2022/08/15 05:03:00;;;;;;;39.75;20.15;;;;;;;16.13;90.02;99010.66;4987310;28;20026;-75
2022/08/15 05:05:25;;;;;;;37.72;19.23;;;;;;;16.14;90.56;99006.75;5017943;28;20456;-76
2022/08/15 05:07:51;;;;;;;29.77;17.58;;;;;;;16.16;90.72;99009.97;5014301;28;20022;-74
2022/08/15 05:10:16;;;;;;;33.35;18.40;;;;;;;16.17;90.47;99011.59;4980302;28;20038;-74
2022/08/15 05:12:42;;;;;;;30.80;16.17;;;;;;;16.16;90.84;99015.47;5002574;28;20041;-75
2022/08/15 05:15:13;;;;;;;38.67;19.92;;;;;;;16.20;90.84;99021.16;5034140;28;20095;-74
2022/08/15 05:17:39;;;;;;;42.75;21.90;;;;;;;16.26;90.86;99013.47;5014476;28;20021;-74
2022/08/15 05:20:06;;;;;;;37.53;20.20;;;;;;;16.25;91.04;99020.13;5018681;28;20022;-75
2022/08/15 05:22:34;;;;;;;42.65;21.65;;;;;;;16.30;91.08;99019.94;5018747;28;20030;-75
2022/08/15 05:25:00;;;;;;;44.70;21.92;;;;;;;16.32;90.92;99028.66;5035778;28;20037;-74
2022/08/15 05:27:26;;;;;;;44.05;23.15;;;;;;;16.40;91.07;99033.31;5017978;28;20013;-74
2022/08/15 05:29:51;;;;;;;37.95;20.70;;;;;;;16.46;90.58;99029.19;5039004;28;20045;-74
2022/08/15 05:32:18;;;;;;;48.22;23.67;;;;;;;16.52;90.40;99033.34;5036873;28;20033;-74
2022/08/15 05:34:46;;;;;;;50.92;26.27;;;;;;;16.57;90.01;99040.59;5036049;28;20185;-73
2022/08/15 05:37:12;;;;;;;56.47;28.38;;;;;;;16.51;89.97;99031.72;5037969;28;20373;-74
2022/08/15 05:39:38;;;;;;;56.58;28.15;;;;;;;16.54;89.66;99039.34;5020901;28;20033;-74
2022/08/15 05:42:10;;;;;;;60.40;28.55;;;;;;;16.62;89.11;99053.34;5036150;28;20518;-75
2022/08/15 05:44:52;;;;;;;60.00;29.60;;;;;;;16.60;89.50;99055.66;5036856;28;20066;-75
2022/08/15 05:47:32;;;;;;;58.03;28.73;;;;;;;16.65;89.39;99052.72;5036086;28;20032;-74
2022/08/15 05:50:16;;;;;;;50.60;28.02;;;;;;;16.65;89.38;99047.19;5039287;28;20033;-73
2022/08/15 05:53:03;;;;;;;54.22;27.92;;;;;;;16.69;89.17;99046.16;5038843;28;20067;-75
2022/08/15 05:55:40;;;;;;;48.95;26.23;;;;;;;16.80;88.54;99043.75;5028683;28;20044;-73
2022/08/15 05:58:20;;;;;;;57.28;28.80;;;;;;;16.88;87.80;99050.34;5020760;28;20030;-73
2022/08/15 06:01:09;;;;;;;54.58;28.35;;;;;;;16.95;86.83;99047.06;5038282;28;20033;-74
2022/08/15 06:03:37;;;;;;;54.95;29.35;;;;;;;17.02;86.59;99039.81;5036893;28;20514;-74
2022/08/15 06:06:10;;;;;;;52.58;28.17;;;;;;;17.11;86.23;99039.69;5024021;28;20033;-75
2022/08/15 06:08:43;;;;;;;55.90;28.63;;;;;;;17.24;85.71;99038.59;5038030;28;20025;-74
2022/08/15 06:11:27;;;;;;;52.85;29.10;;;;;;;17.32;84.96;99038.78;5017997;28;20051;-75
2022/08/15 06:13:58;;;;;;;45.90;26.10;;;;;;;17.42;84.86;99036.38;5030635;28;20519;-73
2022/08/15 06:16:39;;;;;;;34.20;19.83;;;;;;;17.62;84.29;99031.91;5038293;28;20038;-74
2022/08/15 06:19:06;;;;;;;48.63;26.30;;;;;;;17.79;82.61;99038.31;5035881;28;20120;-75
2022/08/15 06:21:38;;;;;;;42.40;24.08;;;;;;;17.80;82.31;99037.97;5018490;28;20025;-73
2022/08/15 06:24:19;;;;;;;43.05;25.40;;;;;;;17.86;81.84;99027.47;5018758;28;20456;-75
2022/08/15 06:26:54;;;;;;;47.65;28.48;;;;;;;17.89;81.17;99024.00;5029806;28;20033;-74
2022/08/15 06:29:41;;;;;;;46.75;27.30;;;;;;;17.99;80.97;99038.53;5027587;28;20028;-73
2022/08/15 06:32:13;;;;;;;37.05;23.67;;;;;;;18.17;80.09;99037.09;5036536;28;20333;-74
2022/08/15 06:34:55;;;;;;;41.03;25.55;;;;;;;18.29;79.96;99025.97;5036059;28;20036;-72
2022/08/15 06:37:32;;;;;;;48.45;28.63;;;;;;;18.36;78.86;99043.94;5036055;28;20061;-74
2022/08/15 06:40:12;;;;;;;41.47;26.63;;;;;;;18.28;78.89;99052.03;5018837;28;20032;-74
2022/08/15 06:42:44;;;;;;;47.85;27.80;;;;;;;18.27;79.18;99053.19;5029649;28;20033;-75
2022/08/15 06:45:28;;;;;;;42.38;25.45;;;;;;;18.46;78.54;99054.53;5034402;28;20013;-73
2022/08/15 06:48:01;;;;;;;29.75;20.60;;;;;;;18.76;77.90;99051.38;5017777;28;20048;-74
2022/08/15 06:50:33;;;;;;;31.40;20.17;;;;;;;19.27;75.81;99053.50;5034394;28;20057;-75
2022/08/15 06:53:34;;;;;;;38.22;23.33;;;;;;;19.60;74.35;99063.41;5018303;28;20025;-75
2022/08/15 06:56:04;;;;;;;36.85;24.88;;;;;;;19.66;73.04;99068.31;4937747;29;20501;-74
2022/08/15 06:58:45;;;;;;;30.88;21.55;;;;;;;19.81;73.14;99060.34;5019427;28;20064;-73
2022/08/15 07:01:20;;;;;;;37.55;24.50;;;;;;;19.92;72.14;99072.50;5016569;28;20021;-74
2022/08/15 07:04:00;;;;;;;36.50;23.67;;;;;;;19.97;71.68;99068.63;5016705;28;20033;-75
2022/08/15 07:06:34;;;;;;;36.28;22.90;;;;;;;20.11;71.58;99080.03;5021099;28;20048;-74
2022/08/15 07:09:26;;;;;;;29.92;18.65;;;;;;;20.40;71.16;99086.22;5029964;28;20027;-73
2022/08/15 07:12:23;;;;;;;36.95;21.05;;;;;;;20.73;70.00;99082.13;5016810;28;20037;-74
2022/08/15 07:15:25;;;;;;;33.15;19.17;;;;;;;21.09;68.60;99080.81;5021866;28;20975;-74
2022/08/15 07:18:00;;;;;;;32.42;20.48;;;;;;;21.37;66.90;99088.03;4972521;28;20026;-74
2022/08/15 07:20:26;;;;;;;26.77;18.33;;;;;;;21.51;65.65;99078.34;5022591;28;20353;-75
2022/08/15 07:22:52;;;;;;;21.65;15.02;;;;;;;21.83;65.47;99072.47;5032934;28;20045;-74
2022/08/15 07:25:24;;;;;;;26.45;15.38;;;;;;;22.10;64.69;99082.41;5030443;28;20028;-75
2022/08/15 07:28:09;;;;;;;31.30;18.65;;;;;;;21.98;64.58;99091.00;5034170;28;20371;-74
2022/08/15 07:30:47;;;;;;;26.40;13.90;;;;;;;21.83;64.58;99076.09;5016470;28;20040;-74
2022/08/15 07:33:30;;;;;;;18.70;12.30;;;;;;;21.88;64.86;99077.75;5034339;28;20071;-74
2022/08/15 07:36:06;;;;;;;15.65;9.98;;;;;;;22.19;64.24;99071.00;5019734;28;20116;-74
2022/08/15 07:38:32;;;;;;;13.70;9.70;;;;;;;22.65;62.44;99078.38;5034003;28;20478;-75
2022/08/15 07:41:30;;;;;;;22.95;13.85;;;;;;;22.55;62.44;99073.47;5036625;28;20340;-75
2022/08/15 07:44:20;;;;;;;23.65;13.38;;;;;;;22.60;61.98;99073.13;5004488;28;20039;-74
2022/08/15 07:47:01;;;;;;;18.60;12.88;;;;;;;22.70;61.54;99071.66;5020586;28;20064;-73
2022/08/15 07:49:30;;;;;;;16.67;11.05;;;;;;;22.99;61.14;99073.53;5032967;28;20399;-74
2022/08/15 07:52:03;;;;;;;20.88;12.30;;;;;;;22.96;59.58;99056.78;5023988;28;20116;-74
2022/08/15 07:54:46;;;;;;;18.55;13.52;;;;;;;22.93;59.31;99060.34;5035876;28;20037;-74
2022/08/15 07:57:30;;;;;;;21.55;13.82;;;;;;;22.83;59.93;99054.28;5017318;28;20037;-74
2022/08/15 08:00:21;;;;;;;17.35;11.68;;;;;;;22.64;60.53;99057.25;5031883;28;20025;-75
2022/08/15 08:02:53;;;;;;;14.27;9.70;;;;;;;22.63;60.50;99064.00;5021828;28;20140;-75
2022/08/15 08:05:23;;;;;;;10.63;7.43;;;;;;;22.52;60.54;99060.31;5035635;28;20401;-74
2022/08/15 08:07:51;;;;;;;12.57;8.68;;;;;;;22.60;59.46;99061.97;5020854;28;20025;-74
2022/08/15 08:10:56;;;;;;;7.80;5.82;;;;;;;22.80;58.99;99066.19;5022847;28;20040;-74
2022/08/15 08:13:47;;;;;;;18.38;9.98;;;;;;;22.85;58.55;99073.38;4988388;28;20061;-75
2022/08/15 08:16:13;;;;;;;12.25;8.52;;;;;;;23.00;58.50;99066.78;5025780;28;20045;-77
2022/08/15 08:19:14;;;;;;;15.38;9.23;;;;;;;23.28;57.92;99067.47;5020695;28;20059;-74
2022/08/15 08:21:57;;;;;;;10.93;7.90;;;;;;;23.66;56.60;99066.19;4996995;28;20046;-75
2022/08/15 08:24:51;;;;;;;11.70;8.35;;;;;;;23.91;55.38;99073.16;5019900;28;20369;-74
2022/08/15 08:27:19;;;;;;;11.23;5.80;;;;;;;24.11;54.91;99076.44;5014397;28;20037;-74
2022/08/15 08:30:12;;;;;;;8.80;6.05;;;;;;;24.38;54.03;99083.34;5002208;28;20018;-75
2022/08/15 08:32:58;;;;;;;7.63;6.00;;;;;;;24.73;52.56;99078.34;5015376;28;20036;-74
2022/08/15 08:35:47;;;;;;;7.60;4.45;;;;;;;24.94;52.20;99079.59;5013066;28;20080;-74
2022/08/15 08:38:39;;;;;;;7.18;3.90;;;;;;;25.11;51.82;99073.22;5015260;28;20026;-74
2022/08/15 08:41:33;;;;;;;4.60;3.70;;;;;;;25.45;50.72;99078.47;5016784;28;20022;-75
2022/08/15 08:44:10;;;;;;;3.97;3.30;;;;;;;25.59;50.44;99084.06;5006728;28;20028;-75
2022/08/15 08:46:58;;;;;;;6.45;4.80;;;;;;;25.47;50.30;99080.88;5017347;28;20163;-75
2022/08/15 08:49:43;;;;;;;5.45;3.47;;;;;;;25.33;50.77;99087.25;5004819;28;20108;-75
2022/08/15 08:52:32;;;;;;;8.75;4.68;;;;;;;25.56;50.13;99086.88;5008245;28;20039;-73
2022/08/15 08:55:19;;;;;;;5.32;3.03;;;;;;;25.87;49.36;99096.44;4999242;28;20031;-74
2022/08/15 08:57:53;;;;;;;6.97;4.90;;;;;;;26.37;46.95;99089.13;5017026;28;20029;-75
2022/08/15 09:00:32;;;;;;;4.50;2.97;;;;;;;26.95;46.43;99095.28;5013885;28;20060;-75
2022/08/15 09:03:11;;;;;;;6.15;3.42;;;;;;;27.55;45.44;99082.06;4999144;28;20383;-72
2022/08/15 09:05:51;;;;;;;5.18;3.20;;;;;;;27.94;43.79;99088.53;5017957;28;20030;-76
2022/08/15 09:08:41;;;;;;;5.32;3.63;;;;;;;28.61;41.03;99089.00;5018191;28;20131;-74
2022/08/15 09:11:22;;;;;;;2.92;1.88;;;;;;;29.49;40.56;99095.00;5027092;28;20029;-74
2022/08/15 09:13:49;;;;;;;3.95;3.10;;;;;;;29.99;37.71;99099.75;5011710;28;20388;-73
2022/08/15 09:16:25;;;;;;;4.68;3.03;;;;;;;30.21;37.19;99093.72;5017016;28;20029;-75
2022/08/15 09:19:06;;;;;;;5.15;3.13;;;;;;;30.59;36.78;99104.66;5017877;28;20026;-73
2022/08/15 09:21:33;;;;;;;3.30;2.47;;;;;;;31.12;34.62;99094.25;5020915;28;20041;-74
2022/08/15 09:23:59;;;;;;;4.07;2.50;;;;;;;31.51;33.75;99097.34;5008421;28;20080;-74
2022/08/15 09:26:35;;;;;;;3.85;2.50;;;;;;;31.85;33.58;99105.41;5012127;28;20034;-74
2022/08/15 09:29:05;;;;;;;3.00;1.55;;;;;;;31.96;33.81;99098.66;5015789;28;20026;-74
2022/08/15 09:31:35;;;;;;;3.38;1.95;;;;;;;31.63;33.94;99098.72;5016913;28;20034;-74
2022/08/15 09:34:21;;;;;;;1.60;1.17;;;;;;;31.83;34.11;99105.06;5005797;28;20045;-75
2022/08/15 09:37:11;;;;;;;1.75;1.25;;;;;;;32.11;33.46;99099.88;5027330;28;20036;-74
2022/08/15 09:40:01;;;;;;;3.88;1.85;;;;;;;32.15;32.67;99109.06;4998503;28;20038;-74
2022/08/15 09:42:35;;;;;;;2.28;1.40;;;;;;;32.52;32.81;99111.66;5013371;28;20084;-73
2022/08/15 09:45:04;;;;;;;3.83;1.80;;;;;;;32.95;31.16;99115.31;5008428;28;20061;-73
2022/08/15 09:48:06;;;;;;;2.53;1.40;;;;;;;33.02;31.27;99112.25;4994149;28;20346;-75
2022/08/15 09:50:43;;;;;;;1.65;1.10;;;;;;;32.35;32.24;99116.63;5021130;28;20543;-74
2022/08/15 09:53:40;;;;;;;1.75;1.20;;;;;;;31.65;32.68;99118.84;5004082;28;20181;-74
2022/08/15 09:56:10;;;;;;;1.98;1.70;;;;;;;31.48;32.84;99113.19;5014181;28;20022;-75
2022/08/15 09:58:52;;;;;;;1.50;1.30;;;;;;;32.34;32.04;99115.84;5007830;28;20084;-72
2022/08/15 10:01:28;;;;;;;1.10;1.00;;;;;;;35.04;29.69;99113.78;4999425;28;20037;-74
2022/08/15 10:04:05;;;;;;;2.08;1.20;;;;;;;38.21;24.82;99125.06;5006356;28;20044;-75
2022/08/15 10:06:51;;;;;;;1.33;0.95;;;;;;;40.05;22.90;99135.59;5019320;28;20026;-74
2022/08/15 10:09:32;;;;;;;3.10;1.00;;;;;;;40.68;20.91;99139.16;5015476;28;20116;-74
2022/08/15 10:12:06;;;;;;;2.92;1.25;;;;;;;40.48;20.73;99130.13;4999284;28;20071;-75
2022/08/15 10:14:48;;;;;;;2.50;1.30;;;;;;;39.26;20.67;99135.25;5041299;28;20052;-74
2022/08/15 10:17:23;;;;;;;1.15;1.00;;;;;;;38.92;21.88;99142.47;5031015;28;20045;-73
2022/08/15 10:19:49;;;;;;;6.45;2.42;;;;;;;39.10;19.74;99141.47;5033258;28;20651;-74
2022/08/15 10:22:21;;;;;;;9.82;3.63;;;;;;;38.65;19.68;99152.88;5025153;28;20029;-74
2022/08/15 10:25:26;;;;;;;11.25;3.60;;;;;;;38.57;19.86;99143.13;5041248;28;20204;-73
2022/08/15 10:28:18;;;;;;;11.27;3.75;;;;;;;37.73;20.04;99151.53;5039893;28;20527;-73
2022/08/15 10:31:06;;;;;;;5.35;3.53;;;;;;;36.90;20.94;99152.66;5020800;28;20084;-73
2022/08/15 10:33:32;;;;;;;15.18;3.75;;;;;;;36.37;21.90;99165.19;5002916;28;20034;-73
2022/08/15 10:36:13;;;;;;;4.68;3.15;;;;;;;36.49;22.05;99155.69;5035500;28;20033;-75
2022/08/15 10:38:44;;;;;;;9.27;3.80;;;;;;;37.00;21.85;99147.69;5030667;28;20029;-74
2022/08/15 10:41:31;;;;;;;5.72;3.42;;;;;;;37.70;21.07;99141.84;5033924;28;20033;-73
2022/08/15 10:44:08;;;;;;;5.22;3.53;;;;;;;38.52;20.53;99140.94;5040022;28;20033;-75
2022/08/15 10:46:37;;;;;;;5.07;2.80;;;;;;;39.36;19.74;99150.22;5034657;28;20033;-74
2022/08/15 10:49:08;;;;;;;9.35;3.17;;;;;;;39.19;18.94;99152.81;5012170;28;20475;-73
2022/08/15 10:51:56;;;;;;;11.07;3.50;;;;;;;37.72;20.52;99144.25;5032569;28;20101;-75
2022/08/15 10:55:00;;;;;;;9.07;3.03;;;;;;;37.02;21.24;99145.94;4987476;28;20057;-75
2022/08/15 10:57:38;;;;;;;7.15;2.58;;;;;;;36.68;22.02;99145.06;4969630;28;20121;-75
2022/08/15 11:00:06;;;;;;;6.05;2.72;;;;;;;36.91;21.42;99157.06;5026035;28;20642;-75
2022/08/15 11:02:46;;;;;;;4.55;2.58;;;;;;;37.03;21.56;99158.94;5036244;28;20034;-76
2022/08/15 11:05:15;;;;;;;6.03;3.08;;;;;;;35.93;22.36;99159.75;5034688;28;20033;-74
2022/08/15 11:07:47;;;;;;;6.35;2.97;;;;;;;34.98;23.85;99156.22;5035673;28;20017;-74
2022/08/15 11:10:15;;;;;;;4.65;2.78;;;;;;;34.32;24.32;99167.56;5020902;28;20032;-75
2022/08/15 11:12:48;;;;;;;5.43;3.08;;;;;;;34.33;24.94;99169.13;5029417;28;20054;-74
2022/08/15 11:15:25;;;;;;;8.75;3.28;;;;;;;33.94;25.15;99163.56;5016484;28;20073;-75
2022/08/15 11:18:03;;;;;;;7.95;3.38;;;;;;;33.41;25.88;99175.38;5039846;28;20105;-74
2022/08/15 11:20:37;;;;;;;10.18;3.75;;;;;;;33.32;26.25;99178.09;5015810;28;20033;-74
2022/08/15 11:23:03;;;;;;;17.85;3.88;;;;;;;32.83;27.06;99167.81;5032621;28;20030;-74
2022/08/15 11:25:35;;;;;;;10.30;4.45;;;;;;;32.17;28.11;99182.94;5022707;28;20037;-76
2022/08/15 11:28:18;;;;;;;15.63;4.07;;;;;;;31.56;29.50;99172.31;5029933;28;20021;-74
2022/08/15 11:30:44;;;;;;;6.85;4.03;;;;;;;31.12;29.68;99173.28;5042408;28;20040;-74
2022/08/15 11:33:30;;;;;;;21.35;4.20;;;;;;;30.95;30.35;99185.75;5036707;28;20404;-74
2022/08/15 11:36:08;;;;;;;11.98;4.15;;;;;;;30.83;30.49;99187.19;5010865;28;20535;-74
2022/08/15 11:38:36;;;;;;;16.60;4.60;;;;;;;30.68;30.61;99195.16;5028197;28;20028;-73
2022/08/15 11:41:03;;;;;;;11.98;4.35;;;;;;;30.34;31.68;99182.06;5032504;28;20033;-74
2022/08/15 11:43:31;;;;;;;7.82;4.45;;;;;;;30.12;32.04;99184.50;5021067;28;20056;-73
2022/08/15 11:45:57;;;;;;;6.95;4.63;;;;;;;30.24;32.02;99189.53;5018814;28;20033;-74
2022/08/15 11:48:29;;;;;;;12.45;5.95;;;;;;;30.34;31.95;99193.34;5031297;28;20041;-73
2022/08/15 11:51:17;;;;;;;6.22;3.80;;;;;;;30.58;31.77;99201.81;5030975;28;20167;-74
2022/08/15 11:54:11;;;;;;;15.35;4.57;;;;;;;30.48;31.76;99202.81;5031329;28;20392;-74
2022/08/15 11:56:49;;;;;;;9.48;4.80;;;;;;;30.11;32.40;99203.44;5019998;28;20025;-74
2022/08/15 11:59:38;;;;;;;6.40;3.83;;;;;;;29.84;32.29;99194.25;5031412;28;20088;-73
2022/08/15 12:02:29;;;;;;;10.38;3.75;;;;;;;29.87;32.72;99196.19;5032226;28;20132;-73